Time;durP1;ratioP1;P1;durP2;ratioP2;P2;SDS_P1;SDS_P2;PMS_P1;PMS_P2;Temp;Humidity;BMP_temperature;BMP_pressure;BME280_temperature;BME280_humidity;BME280_pressure;Samples;Min_cycle;Max_cycle;Signal;HPM_P1;HPM_P2
2022/04/10 00:00:51;;;;;;;5.38;3.75;;;9.00;99.90;;;;;;5017086;28;20187;-90
2022/04/10 00:03:17;;;;;;;6.50;4.60;;;9.00;99.90;;;;;;5015328;28;20229;-91
2022/04/10 00:05:42;;;;;;;4.73;3.60;;;9.00;99.90;;;;;;5032160;28;20179;-90
2022/04/10 00:08:08;;;;;;;5.90;4.07;;;9.00;99.90;;;;;;5031590;28;20246;-91
2022/04/10 00:10:34;;;;;;;7.20;4.37;;;9.00;99.90;;;;;;5015938;28;20206;-89
2022/04/10 00:13:00;;;;;;;5.23;4.20;;;8.90;99.90;;;;;;5016122;28;20198;-91
2022/04/10 00:15:26;;;;;;;8.13;4.20;;;8.90;99.90;;;;;;5000540;28;20648;-90
2022/04/10 00:17:51;;;;;;;9.33;4.50;;;8.90;99.90;;;;;;5035818;28;20195;-91
2022/04/10 00:20:18;;;;;;;5.17;3.93;;;9.00;99.90;;;;;;5034968;28;20428;-90
2022/04/10 00:22:45;;;;;;;6.43;4.25;;;9.00;99.90;;;;;;5018416;28;20571;-91
2022/04/10 00:25:13;;;;;;;7.63;5.10;;;8.90;99.90;;;;;;5018439;28;20193;-91
2022/04/10 00:27:40;;;;;;;6.60;4.82;;;8.90;99.90;;;;;;5036669;28;20206;-91
2022/04/10 00:30:07;;;;;;;6.57;4.45;;;8.90;99.90;;;;;;5019092;28;20304;-91
2022/04/10 00:32:33;;;;;;;8.27;5.25;;;8.90;99.90;;;;;;5019500;28;20256;-91
2022/04/10 00:34:59;;;;;;;8.67;5.07;;;8.90;99.90;;;;;;5038787;28;20170;-89
2022/04/10 00:37:25;;;;;;;6.10;4.03;;;8.90;99.90;;;;;;5036266;28;20283;-91
2022/04/10 00:39:51;;;;;;;5.15;3.85;;;8.90;99.90;;;;;;5018317;28;20432;-90
2022/04/10 00:42:16;;;;;;;7.30;4.60;;;8.80;99.90;;;;;;5035202;28;20229;-91
2022/04/10 00:44:42;;;;;;;6.20;4.10;;;8.80;99.90;;;;;;5037409;28;20400;-89
2022/04/10 00:47:10;;;;;;;8.70;4.03;;;8.70;99.90;;;;;;5036951;28;20253;-89
2022/04/10 00:49:36;;;;;;;4.93;3.75;;;8.70;99.90;;;;;;5019555;28;20292;-90
2022/04/10 00:52:08;;;;;;;6.55;4.35;;;8.70;99.90;;;;;;5036576;28;20683;-90
2022/04/10 00:54:34;;;;;;;7.18;4.40;;;8.70;99.90;;;;;;5019184;28;20201;-90
2022/04/10 00:57:01;;;;;;;6.28;4.78;;;8.60;99.90;;;;;;5020759;28;20203;-91
2022/04/10 00:59:28;;;;;;;8.18;4.72;;;8.60;99.90;;;;;;5022021;28;20262;-90
2022/04/10 01:01:55;;;;;;;8.77;5.45;;;8.60;99.90;;;;;;5044418;28;20221;-91
2022/04/10 01:04:21;;;;;;;7.22;4.85;;;8.60;99.90;;;;;;5041984;28;20186;-89
2022/04/10 01:06:48;;;;;;;6.53;4.65;;;8.60;99.90;;;;;;5034242;28;20233;-90
2022/04/10 01:09:15;;;;;;;11.10;5.18;;;8.60;99.90;;;;;;5042335;28;20233;-90
2022/04/10 01:11:41;;;;;;;5.53;4.70;;;8.50;99.90;;;;;;5035761;28;20202;-91
2022/04/10 01:14:08;;;;;;;7.03;4.37;;;8.60;99.90;;;;;;5036233;28;20663;-90
2022/04/10 01:16:35;;;;;;;8.77;4.57;;;8.50;99.90;;;;;;5039847;28;20425;-90
2022/04/10 01:19:03;;;;;;;5.85;4.85;;;8.50;99.90;;;;;;5029181;28;20191;-89
2022/04/10 01:21:30;;;;;;;6.78;4.85;;;8.50;99.90;;;;;;5018284;28;20309;-91
2022/04/10 01:23:56;;;;;;;7.47;4.93;;;8.40;99.90;;;;;;5030610;28;20226;-90
2022/04/10 01:26:23;;;;;;;8.25;4.20;;;8.40;99.90;;;;;;5013936;28;20619;-91
2022/04/10 01:29:06;;;;;;;7.18;4.75;;;8.40;99.90;;;;;;5013608;28;20215;-90
2022/04/10 01:31:34;;;;;;;8.23;4.80;;;8.40;99.90;;;;;;5013815;28;20178;-91
2022/04/10 01:34:07;;;;;;;6.95;5.35;;;8.40;99.90;;;;;;5030320;28;20175;-90
2022/04/10 01:36:34;;;;;;;6.10;4.68;;;8.40;99.90;;;;;;5030787;28;20197;-91
2022/04/10 01:39:03;;;;;;;11.15;5.10;;;8.40;99.90;;;;;;5014209;28;20171;-91
2022/04/10 01:41:30;;;;;;;9.65;5.63;;;8.40;99.90;;;;;;5013661;28;20179;-90
2022/04/10 01:43:57;;;;;;;9.27;4.88;;;8.40;99.90;;;;;;5015016;28;20209;-90
2022/04/10 01:46:25;;;;;;;7.30;4.88;;;8.40;99.90;;;;;;5015141;28;20175;-90
2022/04/10 01:48:51;;;;;;;8.68;5.50;;;8.40;99.90;;;;;;5015585;28;20225;-90
2022/04/10 01:51:17;;;;;;;7.67;5.10;;;8.40;99.90;;;;;;5015525;28;20179;-90
2022/04/10 01:53:43;;;;;;;8.23;4.30;;;8.40;99.90;;;;;;5017330;28;20470;-91
2022/04/10 01:56:10;;;;;;;7.97;5.53;;;8.30;99.90;;;;;;5031077;28;20207;-89
2022/04/10 01:58:38;;;;;;;7.00;5.32;;;8.30;99.90;;;;;;5017826;28;20281;-90
2022/04/10 02:01:06;;;;;;;6.68;4.80;;;8.30;99.90;;;;;;5016484;28;20186;-90
2022/04/10 02:03:32;;;;;;;5.78;5.05;;;8.30;99.90;;;;;;5029526;28;20287;-90
2022/04/10 02:05:57;;;;;;;6.80;4.57;;;8.30;99.90;;;;;;5025775;28;20203;-89
2022/04/10 02:08:24;;;;;;;8.50;4.70;;;8.30;99.90;;;;;;5030691;28;20455;-90
2022/04/10 02:10:50;;;;;;;7.07;5.65;;;8.30;99.90;;;;;;5020145;28;20504;-89
2022/04/10 02:13:15;;;;;;;7.30;5.23;;;8.30;99.90;;;;;;5025564;28;20293;-90
2022/04/10 02:15:41;;;;;;;8.13;5.90;;;8.30;99.90;;;;;;5021164;28;20411;-90
2022/04/10 02:18:07;;;;;;;6.70;4.73;;;8.30;99.90;;;;;;5034358;28;20462;-91
2022/04/10 02:20:33;;;;;;;7.67;6.13;;;8.30;99.90;;;;;;5036895;28;20178;-89
2022/04/10 02:22:59;;;;;;;9.80;5.13;;;8.30;99.90;;;;;;5038469;28;20202;-91
2022/04/10 02:25:25;;;;;;;10.75;6.47;;;8.30;99.90;;;;;;5037968;28;20407;-90
2022/04/10 02:27:50;;;;;;;10.20;5.83;;;8.30;99.90;;;;;;5037072;28;20222;-90
2022/04/10 02:30:18;;;;;;;9.83;5.10;;;8.30;99.90;;;;;;5053186;28;20210;-90
2022/04/10 02:32:44;;;;;;;10.98;6.40;;;8.30;99.90;;;;;;5040195;28;20264;-90
2022/04/10 02:35:10;;;;;;;11.02;6.53;;;8.30;99.90;;;;;;5041358;28;20257;-90
2022/04/10 02:37:36;;;;;;;8.85;6.07;;;8.30;99.90;;;;;;5042149;28;20210;-90
2022/04/10 02:40:03;;;;;;;8.75;5.70;;;8.30;99.90;;;;;;5039451;28;20248;-90
2022/04/10 02:42:31;;;;;;;7.70;5.53;;;8.30;99.90;;;;;;5037078;28;20202;-91
2022/04/10 02:44:56;;;;;;;10.27;6.93;;;8.30;99.90;;;;;;5037365;28;20686;-90
2022/04/10 02:47:23;;;;;;;13.57;7.67;;;8.30;99.90;;;;;;5038744;28;20226;-91
2022/04/10 02:49:49;;;;;;;9.32;6.32;;;8.30;99.90;;;;;;5039083;28;20221;-90
2022/04/10 02:52:14;;;;;;;10.13;6.30;;;8.30;99.90;;;;;;5039497;28;20228;-90
2022/04/10 02:54:40;;;;;;;8.47;6.03;;;8.40;99.90;;;;;;5039366;28;20175;-89
2022/04/10 02:57:06;;;;;;;8.90;5.90;;;8.40;99.90;;;;;;5039882;28;20256;-91
2022/04/10 02:59:31;;;;;;;9.27;5.87;;;8.40;99.90;;;;;;5039496;28;20233;-89
2022/04/10 03:01:57;;;;;;;10.90;4.90;;;8.40;99.90;;;;;;5038403;28;20233;-91
2022/04/10 03:04:22;;;;;;;8.57;6.13;;;8.40;99.90;;;;;;5041127;28;20170;-89
2022/04/10 03:06:48;;;;;;;8.37;5.60;;;8.40;99.90;;;;;;5065333;28;20233;-89
2022/04/10 03:09:14;;;;;;;7.80;4.90;;;8.30;99.90;;;;;;5047701;28;20220;-89
2022/04/10 03:11:40;;;;;;;10.60;7.15;;;8.30;99.90;;;;;;5059084;28;20272;-91
2022/04/10 03:14:06;;;;;;;9.40;6.17;;;8.30;99.90;;;;;;5057041;28;20220;-90
2022/04/10 03:16:31;;;;;;;10.40;6.60;;;8.30;99.90;;;;;;5024929;28;20177;-91
2022/04/10 03:18:57;;;;;;;7.43;5.73;;;8.30;99.90;;;;;;5001482;28;20436;-90
2022/04/10 03:21:23;;;;;;;11.20;5.57;;;8.30;99.90;;;;;;5017819;28;20179;-90
2022/04/10 03:23:48;;;;;;;9.00;5.57;;;8.30;99.90;;;;;;5000146;28;20199;-89
2022/04/10 03:26:14;;;;;;;9.27;5.93;;;8.30;99.90;;;;;;5017201;28;20167;-89
2022/04/10 03:28:40;;;;;;;10.43;5.70;;;8.30;99.90;;;;;;4999108;28;20558;-91
2022/04/10 03:31:05;;;;;;;9.10;5.53;;;8.30;99.90;;;;;;4999869;28;20175;-89
2022/04/10 03:33:31;;;;;;;6.27;5.17;;;8.30;99.90;;;;;;5017972;28;20195;-91
2022/04/10 03:35:58;;;;;;;8.10;5.93;;;8.20;99.90;;;;;;5000286;28;20184;-89
2022/04/10 03:38:24;;;;;;;8.93;6.03;;;8.20;99.90;;;;;;5001769;28;20211;-91
2022/04/10 03:40:49;;;;;;;9.10;5.90;;;8.20;99.90;;;;;;5000490;28;20197;-89
2022/04/10 03:43:15;;;;;;;7.20;5.90;;;8.20;99.90;;;;;;5024810;28;20199;-90
2022/04/10 03:45:41;;;;;;;12.40;6.70;;;8.10;99.90;;;;;;5028811;28;20167;-89
2022/04/10 03:48:08;;;;;;;7.78;5.22;;;8.10;99.90;;;;;;5028014;28;20244;-91
2022/04/10 03:50:34;;;;;;;9.23;5.70;;;8.00;99.90;;;;;;4999476;28;20306;-90
2022/04/10 03:53:01;;;;;;;6.22;4.97;;;8.00;99.90;;;;;;4999999;28;20202;-90
2022/04/10 03:55:27;;;;;;;8.55;5.70;;;8.00;99.90;;;;;;5018233;28;20175;-90
2022/04/10 03:57:53;;;;;;;6.77;5.07;;;7.90;99.90;;;;;;5020690;28;20239;-90
2022/04/10 04:00:19;;;;;;;10.07;5.60;;;7.90;99.90;;;;;;5017807;28;20455;-90
2022/04/10 04:02:45;;;;;;;7.22;4.82;;;7.90;99.90;;;;;;5002065;28;20611;-90
2022/04/10 04:05:11;;;;;;;7.45;5.40;;;7.90;99.90;;;;;;5017394;28;20177;-91
2022/04/10 04:07:37;;;;;;;7.77;4.97;;;7.80;99.90;;;;;;5016983;28;20317;-91
2022/04/10 04:10:04;;;;;;;10.35;5.97;;;7.80;99.90;;;;;;5016427;28;20199;-90
2022/04/10 04:12:30;;;;;;;6.85;5.40;;;7.80;99.90;;;;;;4999210;28;20203;-91
2022/04/10 04:14:56;;;;;;;5.87;4.23;;;7.80;99.90;;;;;;4999091;28;20179;-90
2022/04/10 04:17:21;;;;;;;5.83;4.30;;;7.70;99.90;;;;;;5017020;28;20451;-91
2022/04/10 04:19:50;;;;;;;6.13;4.30;;;7.70;99.90;;;;;;5037081;28;20170;-90
2022/04/10 04:22:16;;;;;;;7.25;5.13;;;7.60;99.90;;;;;;5019830;28;20670;-90
2022/04/10 04:24:42;;;;;;;6.50;4.43;;;7.60;99.90;;;;;;5037053;28;20178;-90
2022/04/10 04:27:08;;;;;;;8.03;5.33;;;7.60;99.90;;;;;;5036833;28;20215;-91
2022/04/10 04:29:34;;;;;;;7.47;4.20;;;7.50;99.90;;;;;;5037048;28;20534;-89
2022/04/10 04:32:00;;;;;;;7.00;4.60;;;7.50;99.90;;;;;;5037779;28;20829;-91
2022/04/10 04:34:26;;;;;;;7.00;4.73;;;7.50;99.90;;;;;;5020347;28;20257;-90
2022/04/10 04:36:51;;;;;;;5.80;3.47;;;7.50;99.90;;;;;;5019966;28;20466;-90
2022/04/10 04:39:17;;;;;;;6.00;4.43;;;7.50;99.90;;;;;;5020676;28;20667;-89
2022/04/10 04:41:43;;;;;;;7.07;3.97;;;7.40;99.90;;;;;;5018943;28;20636;-90
2022/04/10 04:44:09;;;;;;;5.00;4.30;;;7.40;99.90;;;;;;5019604;28;20175;-89
2022/04/10 04:46:35;;;;;;;4.50;3.70;;;7.40;99.90;;;;;;5038483;28;20181;-91
2022/04/10 04:49:01;;;;;;;6.43;5.53;;;7.40;99.90;;;;;;5028538;28;20237;-90
2022/04/10 04:51:28;;;;;;;6.40;5.30;;;7.40;99.90;;;;;;5040864;28;20175;-91
2022/04/10 04:53:54;;;;;;;8.00;4.10;;;7.40;99.90;;;;;;5018586;28;20387;-90
2022/04/10 04:56:20;;;;;;;3.97;3.20;;;7.40;99.90;;;;;;5037826;28;20178;-90
2022/04/10 04:58:47;;;;;;;4.72;4.10;;;7.40;99.90;;;;;;5017325;28;20206;-91
2022/04/10 05:01:14;;;;;;;5.18;3.30;;;7.40;99.90;;;;;;5017594;28;20178;-90
2022/04/10 05:03:39;;;;;;;6.57;3.65;;;7.40;99.90;;;;;;5034078;28;20202;-91
2022/04/10 05:06:05;;;;;;;5.37;3.80;;;7.40;99.90;;;;;;5017195;28;20178;-90
2022/04/10 05:08:31;;;;;;;4.27;3.53;;;7.50;99.90;;;;;;5033706;28;20698;-91
2022/04/10 05:10:59;;;;;;;7.43;4.30;;;7.50;99.90;;;;;;5034820;28;20423;-91
2022/04/10 05:13:26;;;;;;;6.22;4.07;;;7.50;99.90;;;;;;5034239;28;20560;-91
2022/04/10 05:15:52;;;;;;;6.88;4.03;;;7.50;99.90;;;;;;5030864;28;20171;-90
2022/04/10 05:18:19;;;;;;;4.50;3.53;;;7.60;99.90;;;;;;5014291;28;20214;-91
2022/04/10 05:20:48;;;;;;;5.40;3.63;;;7.60;99.90;;;;;;5015272;28;20474;-90
2022/04/10 05:23:18;;;;;;;4.53;3.28;;;7.60;99.90;;;;;;5015450;28;20278;-90
2022/04/10 05:25:44;;;;;;;5.93;3.78;;;7.60;99.90;;;;;;5014960;28;20213;-90
2022/04/10 05:28:10;;;;;;;7.07;3.73;;;7.60;99.90;;;;;;5015519;28;20668;-90
2022/04/10 05:30:35;;;;;;;6.03;3.93;;;7.70;99.90;;;;;;5014560;28;20431;-89
2022/04/10 05:33:01;;;;;;;4.87;3.37;;;7.70;99.90;;;;;;5014353;28;20218;-91
2022/04/10 05:35:27;;;;;;;5.73;3.43;;;7.70;99.90;;;;;;5015271;28;20520;-90
2022/04/10 05:37:53;;;;;;;5.60;3.40;;;7.70;99.90;;;;;;5014211;28;20195;-90
2022/04/10 05:40:18;;;;;;;3.83;2.93;;;7.70;99.90;;;;;;5013769;28;20398;-90
2022/04/10 05:42:46;;;;;;;3.87;2.97;;;7.80;99.90;;;;;;5031051;28;20207;-90
2022/04/10 05:45:11;;;;;;;5.00;3.30;;;7.80;99.90;;;;;;5014570;28;20420;-90
2022/04/10 05:47:39;;;;;;;4.07;3.07;;;7.80;99.90;;;;;;5016292;28;20206;-90
2022/04/10 05:50:05;;;;;;;3.65;2.90;;;7.90;99.90;;;;;;5015555;28;20784;-90
2022/04/10 05:52:31;;;;;;;4.85;3.78;;;7.90;99.90;;;;;;5016934;28;20206;-90
2022/04/10 05:54:58;;;;;;;2.37;2.13;;;7.90;99.90;;;;;;5018730;28;20555;-90
2022/04/10 05:57:24;;;;;;;5.88;3.72;;;8.00;99.90;;;;;;5024695;28;20423;-90
2022/04/10 05:59:50;;;;;;;3.37;2.80;;;8.00;99.90;;;;;;5040497;28;20613;-89
2022/04/10 06:02:16;;;;;;;5.90;3.40;;;8.10;99.90;;;;;;5036603;28;20957;-91
2022/04/10 06:04:42;;;;;;;4.17;2.93;;;8.10;99.90;;;;;;5020275;28;20436;-90
2022/04/10 06:07:08;;;;;;;3.67;2.80;;;8.10;99.90;;;;;;5023709;28;20243;-91
2022/04/10 06:09:33;;;;;;;3.60;2.60;;;8.20;99.90;;;;;;5022246;28;20207;-89
2022/04/10 06:11:59;;;;;;;4.37;3.50;;;8.20;99.90;;;;;;5048511;28;20455;-91
2022/04/10 06:14:25;;;;;;;3.33;2.70;;;8.20;99.90;;;;;;5018453;28;20182;-90
2022/04/10 06:16:50;;;;;;;4.03;2.90;;;8.30;99.90;;;;;;5037271;28;20264;-90
2022/04/10 06:19:18;;;;;;;2.43;2.13;;;8.30;99.90;;;;;;5037119;28;20182;-90
2022/04/10 06:21:44;;;;;;;3.80;3.00;;;8.40;99.90;;;;;;5038527;28;20171;-91
2022/04/10 06:24:10;;;;;;;2.40;2.20;;;8.40;99.90;;;;;;5037334;28;20186;-91
2022/04/10 06:26:36;;;;;;;4.07;2.93;;;8.50;99.90;;;;;;5037599;28;20178;-91
2022/04/10 06:29:02;;;;;;;4.23;2.70;;;8.50;99.90;;;;;;5037708;28;20222;-91
2022/04/10 06:31:27;;;;;;;3.33;2.93;;;8.50;99.90;;;;;;5039080;28;20458;-91
2022/04/10 06:33:56;;;;;;;3.80;2.70;;;8.60;99.90;;;;;;5040676;28;20412;-89
2022/04/10 06:36:22;;;;;;;2.95;2.70;;;8.60;99.90;;;;;;5039745;28;20229;-91
2022/04/10 06:38:49;;;;;;;2.92;2.67;;;8.70;99.90;;;;;;5038143;28;20198;-91
2022/04/10 06:41:15;;;;;;;3.03;2.50;;;8.70;99.90;;;;;;5037381;28;20179;-90
2022/04/10 06:43:41;;;;;;;3.17;2.75;;;8.70;99.90;;;;;;5037092;28;20202;-91
2022/04/10 06:46:08;;;;;;;4.60;3.10;;;8.80;99.90;;;;;;5039259;28;20198;-89
2022/04/10 06:48:35;;;;;;;2.83;2.55;;;8.80;99.90;;;;;;5040508;28;20265;-91
2022/04/10 06:51:03;;;;;;;3.20;2.88;;;8.80;99.90;;;;;;5038974;28;20206;-91
2022/04/10 06:53:28;;;;;;;3.45;3.08;;;8.90;99.90;;;;;;5039648;28;20241;-90
2022/04/10 06:55:54;;;;;;;4.63;2.90;;;9.00;99.90;;;;;;5054380;28;20182;-90
2022/04/10 06:58:22;;;;;;;3.40;2.87;;;9.00;99.90;;;;;;5037581;28;20195;-91
2022/04/10 07:00:52;;;;;;;4.28;3.35;;;9.10;99.90;;;;;;5039362;28;20185;-91
2022/04/10 07:03:17;;;;;;;3.92;2.97;;;9.20;99.90;;;;;;5037417;28;20218;-91
2022/04/10 07:05:44;;;;;;;5.30;3.30;;;9.30;99.90;;;;;;5038843;28;20175;-90
2022/04/10 07:08:10;;;;;;;4.47;3.20;;;9.30;99.90;;;;;;5038269;28;20450;-90
2022/04/10 07:10:37;;;;;;;3.15;2.88;;;9.40;99.90;;;;;;5041046;28;20210;-90
2022/04/10 07:13:03;;;;;;;5.75;3.22;;;9.50;99.90;;;;;;5048245;28;20217;-90
2022/04/10 07:15:30;;;;;;;5.80;3.95;;;9.60;99.90;;;;;;5047569;28;20265;-90
2022/04/10 07:17:56;;;;;;;3.88;2.78;;;9.70;99.90;;;;;;5016101;28;20207;-91
2022/04/10 07:20:23;;;;;;;4.10;3.15;;;9.80;99.90;;;;;;5017001;28;20757;-90
2022/04/10 07:25:33;;;;;;;3.10;2.80;;;10.00;99.90;;;;;;5017918;28;20728;-91
2022/04/10 07:27:59;;;;;;;6.37;3.27;;;10.10;99.90;;;;;;5017282;28;20226;-91
2022/04/10 07:30:25;;;;;;;3.30;2.55;;;10.20;99.90;;;;;;5032386;28;20264;-90
2022/04/10 07:32:54;;;;;;;3.80;3.50;;;10.30;99.90;;;;;;5017285;28;20273;-90
2022/04/10 07:35:21;;;;;;;4.97;3.15;;;10.40;99.90;;;;;;5017611;28;20420;-90
2022/04/10 07:37:48;;;;;;;3.90;3.53;;;10.40;99.90;;;;;;5034382;28;20722;-91
2022/04/10 07:40:14;;;;;;;3.78;3.38;;;10.50;99.90;;;;;;5019616;28;20179;-90
2022/04/10 07:42:42;;;;;;;3.83;2.95;;;10.60;99.90;;;;;;5016567;28;20669;-91
2022/04/10 07:45:08;;;;;;;3.38;2.80;;;10.60;99.90;;;;;;5016199;28;20530;-91
2022/04/10 07:47:34;;;;;;;3.15;2.90;;;10.70;99.90;;;;;;5016273;28;20257;-90
2022/04/10 07:49:59;;;;;;;4.20;3.80;;;10.80;99.90;;;;;;5016076;28;20211;-90
2022/04/10 07:52:25;;;;;;;5.20;3.60;;;10.90;99.90;;;;;;5016591;28;20296;-91
2022/04/10 07:54:54;;;;;;;7.10;3.57;;;11.00;99.90;;;;;;5017101;28;20183;-90
2022/04/10 07:57:20;;;;;;;4.93;3.58;;;11.10;99.90;;;;;;5017800;28;20265;-89
2022/04/10 07:59:46;;;;;;;4.38;3.60;;;11.20;99.90;;;;;;5033320;28;20179;-90
2022/04/10 08:02:12;;;;;;;5.20;3.57;;;11.40;99.90;;;;;;5017054;28;20270;-90
2022/04/10 08:04:38;;;;;;;4.43;3.10;;;11.50;99.90;;;;;;5018983;28;20171;-90
2022/04/10 08:07:04;;;;;;;3.53;3.00;;;11.60;99.90;;;;;;5033867;28;20246;-90
2022/04/10 08:09:30;;;;;;;4.90;3.80;;;11.80;99.90;;;;;;5030426;28;20230;-90
2022/04/10 08:11:56;;;;;;;5.07;3.53;;;11.90;99.90;;;;;;5031232;28;20490;-91
2022/04/10 08:14:22;;;;;;;3.33;3.05;;;12.10;99.90;;;;;;5039769;28;20421;-89
2022/04/10 08:16:47;;;;;;;4.20;3.43;;;12.20;99.90;;;;;;5039125;28;20213;-90
2022/04/10 08:19:13;;;;;;;3.97;3.20;;;12.40;99.90;;;;;;5038956;28;20178;-89
2022/04/10 08:21:39;;;;;;;4.37;3.57;;;12.50;99.90;;;;;;5018332;28;20199;-91
2022/04/10 08:24:07;;;;;;;3.80;3.13;;;12.70;99.90;;;;;;5035430;28;20171;-90
2022/04/10 08:26:34;;;;;;;5.03;3.90;;;12.90;99.90;;;;;;5018005;28;20426;-91
2022/04/10 08:29:00;;;;;;;4.00;3.20;;;13.00;99.90;;;;;;5017838;28;20517;-90
2022/04/10 08:31:28;;;;;;;4.57;3.40;;;13.20;99.90;;;;;;5035402;28;20400;-91
2022/04/10 08:33:53;;;;;;;8.57;3.67;;;13.30;99.90;;;;;;4997362;28;20192;-90
2022/04/10 08:36:19;;;;;;;3.30;3.00;;;13.40;99.90;;;;;;4995970;28;20432;-90
2022/04/10 08:38:46;;;;;;;5.03;3.57;;;13.50;99.90;;;;;;4996355;28;20200;-91
2022/04/10 08:41:13;;;;;;;5.20;3.60;;;13.60;99.90;;;;;;4996443;28;20408;-90
2022/04/10 08:43:39;;;;;;;3.33;2.93;;;13.60;99.90;;;;;;4978830;28;20809;-91
2022/04/10 08:46:06;;;;;;;4.03;2.97;;;13.80;99.90;;;;;;4995956;28;20402;-89
2022/04/10 08:48:32;;;;;;;3.47;3.00;;;14.10;99.90;;;;;;4996286;28;20781;-90
2022/04/10 08:50:58;;;;;;;3.40;2.90;;;14.60;99.90;;;;;;4979985;28;20509;-90
2022/04/10 08:53:25;;;;;;;4.53;3.13;;;15.10;99.90;;;;;;5000204;28;20463;-91
2022/04/10 08:55:51;;;;;;;4.10;2.97;;;15.60;99.90;;;;;;4998075;28;20414;-91
2022/04/10 08:58:19;;;;;;;4.40;3.40;;;16.00;99.00;;;;;;4997544;28;20476;-91
2022/04/10 09:00:45;;;;;;;4.23;3.00;;;16.20;98.10;;;;;;4979807;28;20558;-91
2022/04/10 09:03:10;;;;;;;3.83;3.40;;;16.40;97.50;;;;;;4980003;28;20445;-91
2022/04/10 09:05:37;;;;;;;3.63;3.33;;;16.50;95.30;;;;;;4980232;28;20497;-90
2022/04/10 09:08:13;;;;;;;3.73;3.30;;;16.50;96.00;;;;;;4993227;28;20837;-91
2022/04/10 09:11:02;;;;;;;5.20;2.70;;;16.50;95.00;;;;;;5005307;28;20469;-90
2022/04/10 09:13:36;;;;;;;7.60;3.50;;;16.40;94.80;;;;;;4994604;28;20460;-91
2022/04/10 09:16:08;;;;;;;4.33;3.23;;;16.30;93.30;;;;;;5009109;28;20428;-91
2022/04/10 09:18:58;;;;;;;3.53;3.10;;;16.20;92.70;;;;;;5035268;28;20474;-90
2022/04/10 09:21:29;;;;;;;4.30;3.43;;;16.00;93.20;;;;;;5035285;28;20438;-91
2022/04/10 09:24:12;;;;;;;5.30;3.90;;;16.10;93.90;;;;;;5033406;28;20466;-91
2022/04/10 09:26:57;;;;;;;4.70;4.00;;;16.10;92.70;;;;;;5034286;28;20388;-91
2022/04/10 09:29:24;;;;;;;4.20;3.63;;;16.30;93.00;;;;;;5033623;28;20455;-91
2022/04/10 09:31:51;;;;;;;4.03;3.30;;;16.60;92.50;;;;;;5036601;28;21014;-91
2022/04/10 09:34:17;;;;;;;3.40;3.03;;;16.80;93.10;;;;;;5035094;28;20416;-90
2022/04/10 09:36:45;;;;;;;5.33;3.03;;;17.00;91.20;;;;;;5033466;28;20478;-91
2022/04/10 09:39:16;;;;;;;3.30;3.00;;;17.20;91.70;;;;;;5033604;28;20411;-90
2022/04/10 09:41:45;;;;;;;3.73;3.03;;;17.30;88.60;;;;;;5034801;28;20427;-91
2022/04/10 09:44:20;;;;;;;3.40;2.67;;;17.20;87.20;;;;;;5033411;28;20515;-91
2022/04/10 09:46:58;;;;;;;3.93;3.37;;;17.00;87.30;;;;;;5034443;28;20502;-91
2022/04/10 09:49:24;;;;;;;4.07;2.80;;;16.80;86.70;;;;;;5033642;28;21033;-91
2022/04/10 09:52:08;;;;;;;6.63;3.77;;;16.50;87.20;;;;;;5033905;28;20443;-91
2022/04/10 09:54:39;;;;;;;6.30;4.50;;;16.40;87.10;;;;;;5035106;28;20463;-92
2022/04/10 09:57:10;;;;;;;9.03;5.70;;;16.20;87.30;;;;;;5034935;28;20501;-91
2022/04/10 09:59:43;;;;;;;3.53;2.90;;;16.00;87.60;;;;;;5033771;28;20461;-90
2022/04/10 10:02:13;;;;;;;4.77;2.93;;;16.00;87.80;;;;;;5035032;28;20452;-90
2022/04/10 10:04:40;;;;;;;3.63;3.33;;;16.00;87.50;;;;;;5036278;28;20402;-91
2022/04/10 10:07:11;;;;;;;9.27;6.17;;;16.00;88.00;;;;;;5034565;28;20981;-91
2022/04/10 10:09:37;;;;;;;5.63;3.80;;;16.00;87.60;;;;;;5035411;28;20459;-91
2022/04/10 10:12:05;;;;;;;2.90;2.70;;;16.00;86.70;;;;;;5035600;28;20432;-92
2022/04/10 10:14:32;;;;;;;2.63;2.43;;;15.90;85.60;;;;;;5035877;28;20400;-90
2022/04/10 10:17:02;;;;;;;3.30;3.00;;;15.80;85.20;;;;;;5020806;28;21017;-91
2022/04/10 10:19:35;;;;;;;5.40;2.50;;;15.80;85.80;;;;;;5015219;28;20412;-91
2022/04/10 10:22:03;;;;;;;3.97;2.57;;;15.70;85.30;;;;;;5016166;28;20440;-91
2022/04/10 10:24:48;;;;;;;4.90;3.90;;;15.60;85.70;;;;;;5026033;28;20396;-90
2022/04/10 10:27:19;;;;;;;3.90;3.50;;;15.60;85.70;;;;;;5013451;28;20448;-90
2022/04/10 10:30:05;;;;;;;3.87;2.80;;;15.50;87.00;;;;;;5014669;28;21119;-90
2022/04/10 10:32:44;;;;;;;3.53;3.20;;;15.60;85.90;;;;;;5014287;28;20459;-90
2022/04/10 10:35:30;;;;;;;3.77;2.50;;;15.50;86.50;;;;;;5017986;28;20428;-90
2022/04/10 10:37:56;;;;;;;3.33;3.03;;;15.50;85.80;;;;;;5014319;28;20449;-90
2022/04/10 10:40:22;;;;;;;6.00;4.03;;;15.50;86.20;;;;;;5019428;28;20527;-88
2022/04/10 10:42:50;;;;;;;2.93;2.70;;;15.50;86.60;;;;;;5018332;28;20202;-90
2022/04/10 10:45:33;;;;;;;2.80;2.57;;;15.50;86.20;;;;;;5017297;28;20496;-91
2022/04/10 10:48:30;;;;;;;3.73;3.40;;;15.40;85.30;;;;;;5019674;28;20428;-91
2022/04/10 10:51:01;;;;;;;4.40;3.10;;;15.30;84.10;;;;;;5015943;28;20483;-91
2022/04/10 10:53:44;;;;;;;2.37;2.10;;;15.20;84.60;;;;;;5022264;28;20534;-91
2022/04/10 10:56:20;;;;;;;6.23;2.87;;;15.00;84.60;;;;;;5018088;28;20428;-91
2022/04/10 10:58:50;;;;;;;4.70;2.63;;;14.90;83.10;;;;;;5034118;28;20450;-91
2022/04/10 11:01:20;;;;;;;3.73;3.30;;;14.90;84.70;;;;;;5018677;28;20409;-90
2022/04/10 11:04:06;;;;;;;2.87;2.67;;;14.90;85.80;;;;;;5019123;28;20455;-91
2022/04/10 11:06:44;;;;;;;3.33;3.03;;;14.90;86.40;;;;;;5018402;28;20475;-91
2022/04/10 11:09:28;;;;;;;8.97;5.23;;;14.90;86.50;;;;;;5038847;28;20472;-89
2022/04/10 11:11:57;;;;;;;7.33;5.00;;;14.90;84.90;;;;;;5035836;28;20459;-91
2022/04/10 11:14:38;;;;;;;4.20;2.60;;;14.90;83.60;;;;;;5020499;28;20763;-91
2022/04/10 11:17:30;;;;;;;3.40;3.10;;;14.90;84.80;;;;;;5035278;28;20447;-91
2022/04/10 11:20:04;;;;;;;2.80;2.60;;;14.90;84.10;;;;;;5046721;28;20435;-90
2022/04/10 11:22:33;;;;;;;2.60;2.30;;;15.00;84.40;;;;;;5055186;28;20431;-89
2022/04/10 11:25:03;;;;;;;3.50;2.90;;;15.20;84.10;;;;;;5049371;28;20420;-91
2022/04/10 11:27:47;;;;;;;2.67;2.43;;;15.40;82.70;;;;;;5036112;28;20831;-90
2022/04/10 11:30:15;;;;;;;2.97;2.57;;;15.60;83.20;;;;;;5036726;28;20496;-91
2022/04/10 11:32:52;;;;;;;3.13;2.70;;;15.80;80.60;;;;;;5044395;28;20443;-91
2022/04/10 11:35:20;;;;;;;7.93;2.13;;;15.90;80.40;;;;;;5035432;28;20407;-90
2022/04/10 11:37:49;;;;;;;2.83;2.20;;;15.90;80.00;;;;;;5036763;28;20524;-91
2022/04/10 11:40:23;;;;;;;5.30;2.20;;;16.00;80.00;;;;;;5037566;28;20430;-91
2022/04/10 11:42:49;;;;;;;4.20;3.43;;;16.10;78.00;;;;;;5037147;28;20975;-91
2022/04/10 11:45:15;;;;;;;4.90;3.30;;;16.10;77.00;;;;;;5036412;28;20411;-90
2022/04/10 11:47:44;;;;;;;5.30;4.13;;;16.10;76.20;;;;;;5036569;28;20444;-91
2022/04/10 11:50:13;;;;;;;3.40;3.10;;;16.10;77.10;;;;;;5035870;28;20857;-90
2022/04/10 11:52:56;;;;;;;1.93;1.83;;;16.00;76.50;;;;;;5036528;28;20439;-91
2022/04/10 11:55:27;;;;;;;5.30;4.30;;;16.00;79.10;;;;;;5036279;28;20406;-90
2022/04/10 11:57:52;;;;;;;2.93;2.63;;;16.00;77.80;;;;;;5035723;28;20459;-90
2022/04/10 12:00:18;;;;;;;3.37;2.20;;;16.00;77.20;;;;;;5035650;28;20423;-90
2022/04/10 12:02:44;;;;;;;2.13;2.00;;;16.00;77.40;;;;;;5052720;28;20203;-91
2022/04/10 12:05:10;;;;;;;2.43;2.23;;;16.00;78.10;;;;;;5037174;28;20190;-89
2022/04/10 12:07:39;;;;;;;3.43;2.90;;;16.10;78.80;;;;;;5035878;28;20273;-91
2022/04/10 12:10:06;;;;;;;2.40;2.20;;;16.20;78.50;;;;;;5036593;28;20206;-91
2022/04/10 12:12:38;;;;;;;2.70;2.50;;;16.30;78.60;;;;;;5037401;28;20446;-90
2022/04/10 12:15:17;;;;;;;2.63;2.13;;;16.40;77.70;;;;;;5035962;28;20499;-90
2022/04/10 12:17:43;;;;;;;3.13;2.50;;;16.50;76.50;;;;;;4996507;28;20556;-91
2022/04/10 12:20:10;;;;;;;2.70;2.20;;;16.50;75.80;;;;;;4995831;28;20939;-91
2022/04/10 12:22:36;;;;;;;2.70;1.60;;;16.50;74.20;;;;;;5000849;28;20444;-90
2022/04/10 12:25:02;;;;;;;2.17;2.07;;;16.50;73.30;;;;;;5015169;28;21008;-89
2022/04/10 12:27:28;;;;;;;4.20;2.83;;;16.40;73.90;;;;;;5016463;28;20203;-91
2022/04/10 12:29:56;;;;;;;3.83;2.63;;;16.40;75.10;;;;;;5016487;28;20464;-90
2022/04/10 12:32:23;;;;;;;2.43;2.23;;;16.30;75.50;;;;;;5015210;28;20499;-91
2022/04/10 12:34:52;;;;;;;2.63;2.17;;;16.30;75.30;;;;;;5015061;28;20421;-91
2022/04/10 12:37:18;;;;;;;2.30;2.13;;;16.40;75.70;;;;;;5016082;28;20499;-90
2022/04/10 12:39:47;;;;;;;4.33;2.10;;;16.40;75.80;;;;;;5016647;28;20400;-90
2022/04/10 12:42:19;;;;;;;4.13;2.67;;;16.50;74.50;;;;;;5015472;28;20448;-91
2022/04/10 12:44:58;;;;;;;2.80;2.60;;;16.60;73.60;;;;;;5015211;28;20416;-91
2022/04/10 12:47:44;;;;;;;4.63;2.17;;;16.60;74.00;;;;;;5015401;28;20468;-91
2022/04/10 12:50:12;;;;;;;2.80;2.27;;;16.50;73.20;;;;;;5014648;28;20467;-90
2022/04/10 12:52:39;;;;;;;3.53;2.37;;;16.50;72.10;;;;;;5016448;28;20432;-91
2022/04/10 12:55:27;;;;;;;3.40;2.30;;;16.40;73.00;;;;;;5015279;28;20408;-90
2022/04/10 12:58:04;;;;;;;1.80;1.57;;;16.20;72.80;;;;;;5016878;28;20504;-91
2022/04/10 13:00:35;;;;;;;3.70;2.20;;;16.20;74.00;;;;;;5024224;28;20405;-90